Merritt Island, Florida
Current Conditions -  °F | °C
As of 4:58 PM on Sunday 23 Nov 2014 (Local Time) from KCOF Reporting Station
Clear Clear  
Wind Chill: 75°   Ceiling: Unl
Heat Index: 75°   Visibility: 10mi
Dew Point: 72°   Wind: 18mph
Humidity: 90%   Direction: 160°SSE
Pressure: 29.9"   Gusts: NA
Location:  28.36°N, 80.68°W
Report Text: KCOF 232158Z AUTO 16016KT 10SM CLR 24/22 A2990 RMK AO2 SLP129 T02410224
Loading
Personal Weather Stations






























Interactive Weather Map New forecast layout! Learn more

10-Day Weather Forecast

Advertisements
Track Severe Weather on mobile